createdAt,value
2018-11-10T00:00:07.061Z,34.13
2018-11-10T00:02:36.055Z,34.00
2018-11-10T00:05:05.496Z,33.47
2018-11-10T00:07:34.310Z,32.47
2018-11-10T00:10:03.099Z,31.60
2018-11-10T00:12:31.843Z,33.63
2018-11-10T00:15:00.617Z,31.43
2018-11-10T00:17:29.425Z,31.60
2018-11-10T00:19:58.150Z,35.17
2018-11-10T00:22:26.867Z,34.77
2018-11-10T00:24:55.610Z,33.17
2018-11-10T00:27:24.351Z,36.00
2018-11-10T00:29:53.141Z,31.80
2018-11-10T00:32:21.962Z,36.93
2018-11-10T00:34:50.736Z,34.07
2018-11-10T00:37:19.625Z,34.80
2018-11-10T00:39:48.455Z,36.40
2018-11-10T00:42:17.264Z,38.00
2018-11-10T00:44:46.030Z,35.97
2018-11-10T00:47:14.916Z,35.30
2018-11-10T00:49:43.752Z,37.10
2018-11-10T00:52:12.560Z,36.03
2018-11-10T00:54:41.425Z,36.87
2018-11-10T00:57:10.416Z,35.30
2018-11-10T00:59:39.153Z,34.53
2018-11-10T01:02:07.939Z,34.67
2018-11-10T01:04:36.718Z,33.07
2018-11-10T01:07:06.362Z,33.77
2018-11-10T01:09:35.215Z,37.83
2018-11-10T01:12:04.623Z,39.13
2018-11-10T01:14:33.382Z,36.30
2018-11-10T01:17:02.239Z,34.13
2018-11-10T01:19:31.028Z,35.10
2018-11-10T01:22:00.120Z,34.23
2018-11-10T01:24:28.915Z,31.27
2018-11-10T01:26:57.695Z,30.23
2018-11-10T01:29:26.491Z,31.40
2018-11-10T01:31:55.234Z,30.93
2018-11-10T01:34:24.031Z,29.90
2018-11-10T01:36:52.778Z,30.20
2018-11-10T01:39:21.516Z,32.63
2018-11-10T01:41:50.258Z,31.07
2018-11-10T01:44:18.986Z,30.37
2018-11-10T01:46:48.103Z,30.43
2018-11-10T01:49:16.859Z,29.90
2018-11-10T01:51:45.639Z,29.60
2018-11-10T01:54:14.749Z,28.30
2018-11-10T01:56:43.563Z,29.90
2018-11-10T01:59:12.323Z,28.50
2018-11-10T02:01:41.025Z,28.30
2018-11-10T02:04:09.841Z,29.53
2018-11-10T02:06:38.662Z,29.57
2018-11-10T02:09:09.818Z,29.00
2018-11-10T02:11:38.612Z,30.07
2018-11-10T02:14:07.443Z,28.97
2018-11-10T02:16:36.211Z,28.97
2018-11-10T02:19:05.337Z,28.40
2018-11-10T02:21:34.158Z,27.23
2018-11-10T02:24:02.925Z,30.53
2018-11-10T02:26:31.798Z,29.07
2018-11-10T02:29:00.723Z,27.33
2018-11-10T02:31:29.591Z,28.57
2018-11-10T02:33:58.367Z,27.63
2018-11-10T02:36:27.189Z,27.17
2018-11-10T02:38:55.968Z,26.77
2018-11-10T02:41:25.061Z,28.30
2018-11-10T02:43:53.928Z,27.63
2018-11-10T02:46:22.836Z,27.40
2018-11-10T02:48:51.616Z,28.60
2018-11-10T02:51:20.400Z,28.00
2018-11-10T02:53:49.161Z,27.03
2018-11-10T02:56:18.833Z,27.30
2018-11-10T02:58:47.578Z,27.93
2018-11-10T03:01:16.364Z,27.23
2018-11-10T03:03:45.100Z,28.73
2018-11-10T03:06:14.831Z,28.70
2018-11-10T03:08:43.616Z,32.10
2018-11-10T03:11:12.383Z,27.90
2018-11-10T03:13:41.163Z,29.07
2018-11-10T03:16:09.994Z,30.80
2018-11-10T03:18:38.836Z,31.47
2018-11-10T03:21:07.660Z,33.47
2018-11-10T03:23:36.458Z,30.47
2018-11-10T03:26:06.006Z,28.97
2018-11-10T03:28:34.722Z,27.57
2018-11-10T03:31:03.483Z,29.67
2018-11-10T03:33:32.276Z,29.90
2018-11-10T03:36:01.067Z,29.57
2018-11-10T03:38:30.022Z,26.97
2018-11-10T03:40:58.970Z,28.40
2018-11-10T03:43:27.860Z,30.13
2018-11-10T03:45:56.654Z,28.73
2018-11-10T03:48:25.421Z,27.23
2018-11-10T03:50:54.146Z,28.03
2018-11-10T03:53:22.918Z,27.40
2018-11-10T03:55:51.695Z,28.30
2018-11-10T03:58:20.419Z,29.47
2018-11-10T04:00:49.208Z,27.90
2018-11-10T04:03:18.005Z,29.30
2018-11-10T04:05:46.812Z,27.10
2018-11-10T04:08:15.597Z,29.13
2018-11-10T04:10:44.346Z,28.03
2018-11-10T04:13:13.122Z,27.83
2018-11-10T04:15:41.882Z,28.63
2018-11-10T04:18:10.655Z,27.10
2018-11-10T04:20:39.445Z,28.37
2018-11-10T04:23:08.392Z,29.03
2018-11-10T04:25:37.164Z,27.40
2018-11-10T04:28:06.431Z,29.07
2018-11-10T04:30:35.141Z,29.53
2018-11-10T04:33:03.955Z,28.00
2018-11-10T04:35:32.995Z,28.33
2018-11-10T04:38:01.759Z,30.00
2018-11-10T04:40:32.354Z,27.40
2018-11-10T04:43:01.164Z,30.30
2018-11-10T04:45:29.942Z,30.43
2018-11-10T04:47:58.710Z,29.40
2018-11-10T04:50:27.470Z,28.90
2018-11-10T04:52:56.332Z,28.57
2018-11-10T04:55:25.193Z,29.87
2018-11-10T04:57:53.914Z,27.60
2018-11-10T05:00:22.730Z,29.43
2018-11-10T05:02:51.489Z,30.17
2018-11-10T05:05:20.345Z,30.00
2018-11-10T05:07:49.061Z,29.67
2018-11-10T05:10:17.827Z,28.63
2018-11-10T05:12:46.568Z,29.50
2018-11-10T05:15:15.364Z,29.03
2018-11-10T05:17:44.177Z,29.90
2018-11-10T05:20:12.935Z,29.43
2018-11-10T05:22:41.759Z,29.43
2018-11-10T05:25:11.262Z,30.03
2018-11-10T05:27:40.253Z,29.43
2018-11-10T05:30:09.647Z,31.57
2018-11-10T05:32:38.485Z,30.20
2018-11-10T05:35:08.132Z,29.87
2018-11-10T05:37:36.957Z,29.73
2018-11-10T05:40:07.062Z,29.77
2018-11-10T05:42:35.910Z,30.40
2018-11-10T05:45:05.006Z,31.37
2018-11-10T05:47:33.867Z,30.43
2018-11-10T05:50:02.703Z,32.47
2018-11-10T05:52:31.654Z,31.00
2018-11-10T05:55:00.501Z,29.20
2018-11-10T05:57:29.310Z,30.53
2018-11-10T05:59:58.155Z,30.90
2018-11-10T06:02:26.922Z,32.07
2018-11-10T06:04:55.857Z,31.67
2018-11-10T06:07:24.639Z,29.37
2018-11-10T06:09:53.658Z,30.20
2018-11-10T06:12:22.723Z,31.80
2018-11-10T06:14:51.742Z,32.67
2018-11-10T06:17:20.670Z,32.70
2018-11-10T06:19:49.530Z,33.70
2018-11-10T06:22:18.317Z,32.77
2018-11-10T06:24:47.201Z,33.67
2018-11-10T06:27:16.025Z,34.33
2018-11-10T06:29:44.834Z,36.17
2018-11-10T06:32:13.594Z,37.73
2018-11-10T06:34:42.426Z,36.67
2018-11-10T06:37:11.236Z,36.73
2018-11-10T06:39:40.053Z,39.17
2018-11-10T06:42:08.922Z,40.67
2018-11-10T06:44:37.645Z,42.50
2018-11-10T06:47:06.679Z,41.03
2018-11-10T06:49:35.583Z,41.47
2018-11-10T06:52:04.406Z,38.80
2018-11-10T06:54:33.278Z,40.10
2018-11-10T06:57:02.052Z,38.10
2018-11-10T06:59:30.860Z,37.30
2018-11-10T07:01:59.619Z,40.30
2018-11-10T07:04:28.414Z,40.30
2018-11-10T07:06:57.192Z,38.07
2018-11-10T07:09:26.431Z,38.43
2018-11-10T07:11:55.439Z,39.80
2018-11-10T07:14:24.203Z,42.77
2018-11-10T07:16:52.986Z,40.60
2018-11-10T07:19:21.785Z,40.90
2018-11-10T07:21:50.593Z,39.00
2018-11-10T07:24:19.384Z,40.03
2018-11-10T07:26:48.178Z,39.70
2018-11-10T07:29:17.086Z,37.27
2018-11-10T07:31:46.078Z,38.67
2018-11-10T07:34:15.069Z,41.37
2018-11-10T07:36:43.830Z,38.13
2018-11-10T07:39:13.033Z,39.37
2018-11-10T07:41:41.885Z,38.50
2018-11-10T07:44:10.640Z,44.53
2018-11-10T07:46:39.370Z,39.43
2018-11-10T07:49:08.163Z,36.13
2018-11-10T07:51:37.117Z,34.97
2018-11-10T07:54:05.900Z,32.87
2018-11-10T07:56:34.691Z,31.33
2018-11-10T07:59:03.434Z,28.97
2018-11-10T08:01:32.236Z,31.33
2018-11-10T08:04:00.996Z,29.60
2018-11-10T08:06:29.766Z,27.27
2018-11-10T08:08:58.553Z,29.63
2018-11-10T08:11:27.523Z,26.67
2018-11-10T08:13:56.330Z,25.73
2018-11-10T08:16:25.116Z,25.73
2018-11-10T08:18:53.918Z,28.20
2018-11-10T08:21:22.674Z,26.33
2018-11-10T08:23:51.586Z,28.97
2018-11-10T08:26:20.405Z,27.30
2018-11-10T08:28:49.199Z,28.90
2018-11-10T08:31:18.103Z,28.97
2018-11-10T08:33:46.999Z,27.23
2018-11-10T08:36:15.871Z,28.23
2018-11-10T08:38:44.862Z,30.33
2018-11-10T08:41:13.648Z,28.43
2018-11-10T08:43:42.502Z,31.80
2018-11-10T08:46:11.557Z,30.10
2018-11-10T08:48:40.429Z,31.03
2018-11-10T08:51:09.845Z,31.80
2018-11-10T08:53:38.696Z,29.87
2018-11-10T08:56:09.214Z,30.10
2018-11-10T08:58:43.626Z,33.13
2018-11-10T09:01:12.658Z,30.37
2018-11-10T09:03:41.447Z,30.47
2018-11-10T09:06:10.282Z,31.97
2018-11-10T09:08:39.054Z,30.37
2018-11-10T09:11:07.938Z,31.00
2018-11-10T09:13:36.771Z,32.40
2018-11-10T09:16:05.633Z,32.73
2018-11-10T09:18:34.620Z,31.33
2018-11-10T09:21:03.392Z,31.20
2018-11-10T09:23:32.339Z,31.57
2018-11-10T09:26:01.186Z,30.83
2018-11-10T09:28:30.008Z,31.73
2018-11-10T09:30:59.092Z,25.60
2018-11-10T09:33:28.083Z,28.60
2018-11-10T09:35:57.032Z,28.50
2018-11-10T09:38:25.834Z,29.10
2018-11-10T09:40:54.650Z,28.10
2018-11-10T09:43:23.567Z,27.40
2018-11-10T09:45:52.447Z,27.53
2018-11-10T09:48:21.918Z,27.63
2018-11-10T09:50:50.767Z,25.07
2018-11-10T09:53:19.795Z,26.37
2018-11-10T09:55:48.609Z,27.23
2018-11-10T09:58:17.417Z,26.87
2018-11-10T10:00:46.188Z,26.23
2018-11-10T10:03:15.042Z,26.60
2018-11-10T10:05:43.874Z,25.57
2018-11-10T10:08:12.678Z,27.10
2018-11-10T10:10:41.510Z,27.67
2018-11-10T10:13:10.368Z,27.23
2018-11-10T10:15:39.208Z,27.13
2018-11-10T10:18:07.970Z,28.40
2018-11-10T10:20:36.748Z,27.93
2018-11-10T10:23:05.940Z,28.83
2018-11-10T10:25:34.797Z,26.77
2018-11-10T10:28:03.594Z,28.93
2018-11-10T10:30:32.378Z,28.47
2018-11-10T10:33:01.314Z,31.33
2018-11-10T10:35:30.363Z,28.17
2018-11-10T10:37:59.186Z,28.80
2018-11-10T10:40:27.942Z,25.60
2018-11-10T10:42:56.828Z,27.07
2018-11-10T10:45:25.771Z,28.60
2018-11-10T10:47:54.631Z,26.63
2018-11-10T10:50:23.806Z,23.57
2018-11-10T10:52:52.606Z,23.67
2018-11-10T10:55:21.496Z,25.60
2018-11-10T10:57:51.166Z,24.77
2018-11-10T11:01:22.899Z,23.50
2018-11-10T11:03:56.808Z,25.53
2018-11-10T11:06:25.603Z,28.70
2018-11-10T11:08:54.417Z,25.70
2018-11-10T11:11:23.401Z,24.17
2018-11-10T11:13:52.178Z,24.27
2018-11-10T11:16:21.010Z,24.40
2018-11-10T11:18:49.819Z,23.47
2018-11-10T11:21:20.152Z,23.37
2018-11-10T11:23:49.788Z,24.13
2018-11-10T11:26:21.885Z,22.00
2018-11-10T11:28:52.577Z,22.30
2018-11-10T11:31:21.414Z,21.17
2018-11-10T11:33:54.808Z,21.87
2018-11-10T11:36:30.161Z,22.60
2018-11-10T11:39:02.307Z,23.43
2018-11-10T11:41:43.879Z,21.83
2018-11-10T11:44:19.569Z,23.87
2018-11-10T11:46:56.587Z,25.43
2018-11-10T11:49:29.531Z,21.37
2018-11-10T11:52:01.922Z,20.53
2018-11-10T11:54:32.751Z,19.77
2018-11-10T11:57:03.783Z,21.47
2018-11-10T11:59:32.634Z,19.50
2018-11-10T12:02:01.449Z,19.87
2018-11-10T12:04:30.410Z,20.53
2018-11-10T12:06:59.335Z,21.60
2018-11-10T12:09:28.094Z,22.07
2018-11-10T12:11:56.870Z,21.30
2018-11-10T12:14:25.669Z,20.83
2018-11-10T12:16:54.489Z,21.47
2018-11-10T12:19:23.455Z,21.97
2018-11-10T12:21:52.575Z,22.73
2018-11-10T12:24:21.507Z,21.53
2018-11-10T12:26:50.463Z,23.13
2018-11-10T12:29:19.807Z,23.97
2018-11-10T12:31:48.689Z,22.00
2018-11-10T12:34:17.640Z,22.10
2018-11-10T12:36:46.606Z,21.23
2018-11-10T12:39:15.482Z,21.67
2018-11-10T12:41:44.336Z,23.47
2018-11-10T12:44:13.208Z,26.67
2018-11-10T12:46:42.092Z,22.70
2018-11-10T12:49:11.329Z,21.53
2018-11-10T12:51:40.270Z,20.73
2018-11-10T12:54:09.004Z,22.60
2018-11-10T12:56:37.820Z,21.37
2018-11-10T12:59:06.735Z,21.60
2018-11-10T13:01:35.539Z,19.50
2018-11-10T13:04:04.386Z,19.83
2018-11-10T13:06:33.236Z,20.23
2018-11-10T13:09:02.060Z,21.20
2018-11-10T13:11:31.152Z,20.80
2018-11-10T13:14:00.086Z,18.73
2018-11-10T13:16:28.942Z,19.60
2018-11-10T13:18:58.348Z,19.13
2018-11-10T13:21:27.187Z,19.83
2018-11-10T13:23:56.196Z,20.17
2018-11-10T13:26:25.239Z,20.37
2018-11-10T13:28:54.079Z,18.40
2018-11-10T13:31:23.015Z,19.17
2018-11-10T13:33:51.899Z,18.00
2018-11-10T13:36:24.364Z,18.83
2018-11-10T13:38:53.353Z,18.53
2018-11-10T13:41:22.250Z,17.87
2018-11-10T13:43:51.188Z,17.10
2018-11-10T13:46:20.076Z,16.17
2018-11-10T13:48:48.903Z,17.53
2018-11-10T13:51:17.818Z,16.40
2018-11-10T13:53:46.870Z,17.63
2018-11-10T13:56:15.729Z,14.67
2018-11-10T13:58:45.406Z,16.57
2018-11-10T14:01:14.223Z,15.53
2018-11-10T14:03:43.055Z,17.63
2018-11-10T14:06:11.991Z,15.80
2018-11-10T14:08:40.734Z,16.07
2018-11-10T14:11:09.578Z,17.17
2018-11-10T14:13:38.450Z,15.60
2018-11-10T14:16:07.339Z,22.17
2018-11-10T14:18:36.170Z,17.50
2018-11-10T14:21:05.019Z,18.43
2018-11-10T14:23:33.896Z,16.40
2018-11-10T14:26:03.822Z,16.83
2018-11-10T14:28:32.803Z,18.60
2018-11-10T14:31:01.632Z,18.43
2018-11-10T14:33:30.415Z,19.00
2018-11-10T14:35:59.251Z,17.17
2018-11-10T14:38:28.110Z,18.13
2018-11-10T14:40:56.917Z,20.10
2018-11-10T14:43:25.793Z,23.40
2018-11-10T14:45:54.577Z,25.30
2018-11-10T14:48:23.352Z,25.07
2018-11-10T14:50:52.193Z,27.30
2018-11-10T14:53:21.035Z,25.83
2018-11-10T14:55:49.841Z,24.77
2018-11-10T14:58:18.664Z,25.73
2018-11-10T15:00:47.576Z,24.40
2018-11-10T15:03:16.462Z,25.07
2018-11-10T15:05:45.389Z,24.97
2018-11-10T15:08:17.583Z,24.97
2018-11-10T15:10:46.504Z,25.43
2018-11-10T15:13:15.390Z,25.03
2018-11-10T15:15:44.167Z,25.73
2018-11-10T15:18:13.080Z,24.33
2018-11-10T15:20:41.987Z,24.83
2018-11-10T15:23:10.817Z,25.57
2018-11-10T15:25:39.629Z,25.83
2018-11-10T15:28:08.787Z,25.47
2018-11-10T15:30:37.587Z,25.13
2018-11-10T15:33:06.375Z,24.20
2018-11-10T15:35:35.281Z,25.20
2018-11-10T15:38:04.062Z,25.77
2018-11-10T15:40:32.803Z,27.67
2018-11-10T15:43:01.582Z,26.20
2018-11-10T15:45:30.421Z,25.87
2018-11-10T15:47:59.810Z,26.37
2018-11-10T15:50:28.740Z,25.90
2018-11-10T15:52:57.750Z,30.83
2018-11-10T15:55:26.523Z,29.97
2018-11-10T15:57:55.330Z,30.60
2018-11-10T16:00:24.335Z,30.83
2018-11-10T16:02:53.146Z,28.13
2018-11-10T16:05:21.958Z,28.60
2018-11-10T16:07:50.792Z,26.07
2018-11-10T16:10:19.785Z,25.57
2018-11-10T16:12:48.739Z,25.40
2018-11-10T16:15:18.451Z,25.63
2018-11-10T16:17:47.374Z,25.07
2018-11-10T16:20:17.453Z,26.13
2018-11-10T16:22:47.707Z,25.70
2018-11-10T16:25:16.791Z,26.10
2018-11-10T16:27:46.883Z,25.33
2018-11-10T16:30:17.156Z,25.50
2018-11-10T16:32:46.199Z,25.93
2018-11-10T16:35:15.098Z,27.20
2018-11-10T16:37:43.856Z,26.23
2018-11-10T16:40:15.983Z,25.67
2018-11-10T16:42:45.841Z,27.90
2018-11-10T16:45:15.266Z,25.90
2018-11-10T16:47:44.239Z,25.70
2018-11-10T16:50:13.230Z,29.20
2018-11-10T16:52:42.924Z,25.40
2018-11-10T16:55:11.893Z,24.03
2018-11-10T16:57:40.856Z,25.30
2018-11-10T17:00:15.323Z,23.20
2018-11-10T17:02:44.247Z,25.83
2018-11-10T17:05:13.168Z,24.43
2018-11-10T17:07:42.266Z,22.90
2018-11-10T17:10:14.821Z,22.43
2018-11-10T17:12:43.937Z,25.13
2018-11-10T17:15:12.758Z,24.67
2018-11-10T17:17:41.807Z,22.27
2018-11-10T17:20:13.070Z,21.70
2018-11-10T17:22:42.014Z,22.43
2018-11-10T17:25:11.999Z,21.53
2018-11-10T17:27:41.243Z,25.93
2018-11-10T17:30:13.089Z,21.70
2018-11-10T17:32:42.237Z,20.50
2018-11-10T17:35:11.804Z,20.60
2018-11-10T17:37:40.637Z,20.33
2018-11-10T17:40:11.572Z,19.60
2018-11-10T17:42:40.540Z,19.73
2018-11-10T17:45:11.485Z,20.43
2018-11-10T17:47:40.484Z,20.87
2018-11-10T17:50:10.879Z,20.77
2018-11-10T17:52:40.424Z,21.97
2018-11-10T17:55:10.661Z,24.33
2018-11-10T17:57:39.662Z,22.40
2018-11-10T18:00:08.862Z,23.27
2018-11-10T18:02:37.802Z,24.97
2018-11-10T18:05:08.685Z,23.90
2018-11-10T18:07:37.543Z,22.10
2018-11-10T18:10:08.033Z,21.63
2018-11-10T18:12:36.843Z,19.33
2018-11-10T18:15:06.286Z,22.57
2018-11-10T18:17:35.095Z,22.33
2018-11-10T18:20:04.003Z,20.90
2018-11-10T18:22:32.770Z,23.03
2018-11-10T18:25:01.601Z,23.17
2018-11-10T18:27:30.586Z,23.73
2018-11-10T18:29:59.429Z,23.93
2018-11-10T18:35:09.278Z,24.63
2018-11-10T18:37:38.140Z,23.90
2018-11-10T18:40:07.504Z,24.30
2018-11-10T18:42:36.388Z,23.37
2018-11-10T18:45:05.861Z,23.00
2018-11-10T18:47:34.713Z,24.83
2018-11-10T18:50:03.779Z,25.27
2018-11-10T18:52:32.635Z,24.70
2018-11-10T18:55:01.479Z,24.83
2018-11-10T18:57:30.520Z,24.20
2018-11-10T18:59:59.355Z,27.43
2018-11-10T19:02:28.172Z,24.80
2018-11-10T19:04:56.955Z,25.40
2018-11-10T19:07:25.775Z,26.60
2018-11-10T19:09:54.591Z,26.90
2018-11-10T19:12:23.797Z,26.03
2018-11-10T19:14:52.626Z,26.40
2018-11-10T19:17:21.525Z,31.00
2018-11-10T19:19:50.387Z,27.50
2018-11-10T19:22:19.346Z,27.30
2018-11-10T19:24:48.191Z,29.50
2018-11-10T19:27:16.991Z,29.33
2018-11-10T19:29:45.889Z,28.53
2018-11-10T19:32:14.710Z,30.77
2018-11-10T19:34:43.702Z,28.53
2018-11-10T19:37:12.566Z,37.97
2018-11-10T19:39:41.483Z,28.63
2018-11-10T19:42:10.274Z,30.37
2018-11-10T19:44:39.089Z,31.03
2018-11-10T19:47:07.894Z,34.43
2018-11-10T19:49:36.754Z,35.70
2018-11-10T19:52:06.050Z,35.73
2018-11-10T19:54:34.941Z,37.97
2018-11-10T19:57:03.774Z,36.50
2018-11-10T19:59:32.567Z,41.13
2018-11-10T20:02:01.351Z,42.57
2018-11-10T20:04:30.130Z,42.53
2018-11-10T20:06:58.964Z,42.40
2018-11-10T20:09:27.723Z,45.20
2018-11-10T20:11:56.562Z,43.00
2018-11-10T20:14:25.350Z,44.63
2018-11-10T20:16:54.203Z,44.97
2018-11-10T20:19:23.143Z,43.93
2018-11-10T20:21:52.115Z,43.33
2018-11-10T20:24:20.898Z,46.30
2018-11-10T20:26:49.699Z,46.03
2018-11-10T20:29:18.570Z,44.93
2018-11-10T20:31:47.411Z,46.10
2018-11-10T20:34:16.244Z,45.97
2018-11-10T20:36:45.210Z,46.20
2018-11-10T20:39:14.080Z,47.80
2018-11-10T20:41:42.877Z,48.20
2018-11-10T20:44:11.726Z,49.27
2018-11-10T20:46:40.592Z,47.20
2018-11-10T20:49:09.466Z,49.97
2018-11-10T20:51:38.262Z,49.27
2018-11-10T20:54:07.443Z,48.20
2018-11-10T20:56:36.193Z,50.80
2018-11-10T20:59:05.178Z,48.07
2018-11-10T21:01:33.970Z,48.17
2018-11-10T21:04:02.787Z,49.57
2018-11-10T21:06:31.627Z,48.80
2018-11-10T21:09:00.406Z,46.43
2018-11-10T21:11:29.178Z,49.30
2018-11-10T21:13:57.995Z,49.30
2018-11-10T21:16:26.771Z,49.03
2018-11-10T21:18:55.645Z,50.43
2018-11-10T21:21:24.458Z,48.97
2018-11-10T21:23:53.243Z,51.10
2018-11-10T21:26:22.038Z,47.93
2018-11-10T21:28:50.872Z,48.20
2018-11-10T21:31:19.860Z,44.63
2018-11-10T21:33:48.864Z,46.93
2018-11-10T21:36:17.742Z,46.43
2018-11-10T21:38:46.526Z,46.33
2018-11-10T21:41:15.410Z,43.87
2018-11-10T21:43:44.263Z,45.73
2018-11-10T21:46:13.312Z,44.67
2018-11-10T21:48:42.099Z,42.47
2018-11-10T21:51:10.946Z,40.77
2018-11-10T21:53:39.731Z,43.30
2018-11-10T21:56:08.507Z,43.80
2018-11-10T21:58:37.314Z,41.33
2018-11-10T22:01:06.164Z,40.40
2018-11-10T22:03:34.954Z,42.50
2018-11-10T22:06:03.774Z,42.30
2018-11-10T22:08:32.761Z,42.50
2018-11-10T22:11:01.639Z,40.03
2018-11-10T22:13:30.670Z,41.37
2018-11-10T22:15:59.591Z,40.07
2018-11-10T22:18:28.708Z,41.97
2018-11-10T22:20:57.495Z,40.03
2018-11-10T22:23:26.285Z,40.87
2018-11-10T22:25:55.159Z,39.67
2018-11-10T22:28:23.970Z,39.47
2018-11-10T22:30:52.836Z,40.17
2018-11-10T22:33:21.848Z,39.53
2018-11-10T22:35:50.605Z,40.90
2018-11-10T22:38:19.382Z,39.00
2018-11-10T22:40:48.234Z,38.67
2018-11-10T22:43:16.995Z,39.13
2018-11-10T22:45:45.727Z,40.30
2018-11-10T22:48:14.571Z,38.67
2018-11-10T22:50:43.335Z,39.37
2018-11-10T22:53:12.174Z,39.67
2018-11-10T22:55:41.007Z,41.23
2018-11-10T22:58:09.772Z,39.73
2018-11-10T23:00:42.781Z,39.60
2018-11-10T23:03:11.601Z,39.80
2018-11-10T23:05:40.432Z,41.43
2018-11-10T23:08:09.604Z,39.63
2018-11-10T23:10:38.751Z,40.17
2018-11-10T23:13:07.642Z,39.77
2018-11-10T23:15:36.407Z,37.20
2018-11-10T23:18:05.264Z,35.77
2018-11-10T23:20:34.048Z,37.60
2018-11-10T23:23:02.926Z,35.93
2018-11-10T23:25:31.868Z,36.73
2018-11-10T23:28:00.680Z,37.77
2018-11-10T23:30:29.536Z,36.13
2018-11-10T23:32:58.302Z,34.07
2018-11-10T23:35:27.069Z,34.23
2018-11-10T23:37:55.886Z,34.87
2018-11-10T23:40:24.754Z,35.60
2018-11-10T23:42:53.571Z,35.50
2018-11-10T23:45:22.363Z,36.33
2018-11-10T23:47:51.167Z,36.00
2018-11-10T23:50:19.958Z,36.90
2018-11-10T23:52:48.826Z,35.93
2018-11-10T23:55:17.918Z,40.67
2018-11-10T23:57:46.827Z,40.83
